Pagrindinis puslapis
METAR-TAF:

METAR-TAF

Oro uostai :

Wittering, Anglija

platuma: 52-37N, ilguma: 000-28W, Aukštis: 84 m

Dabartinis oras

Ataskaita buvo paskelbta 1 valandą ir 10 minutes, ne 09:50 UTC
Vėjas 12 kt iš Šiaurės/Šiaurės Rytų
Temperatūra 6°C
Drėgmė 70%
Slėgis 1033 hPa
Matomumas 10 km arba daugiau

METAR: EGXT 310950Z AUTO 03012KT 9999 FEW023/// 06/01 Q1033

Laikas: 12:00 (11:00 UTC)

Prognozė

Ataskaita buvo paskelbta 3 valandos ir 11 minutes, ne 07:49 UTC
Prognozė galioja nuo 31 metu 09 UTC su 31 metu 18 UTC
Vėjas 9 kt iš Šiaurės Rytų
Matomumas 10 km arba daugiau
Mažai debesys ne aukštis 1800 ft
Išsisklaidę debesys ne aukštis 4000 ft
Tikimybė 30% :
Laikinai
nuo 31 metu 09 UTC su 31 metu 10 UTC
Su prošvaistėmis ne aukštis 2200 ft
lietus

TAF: EGXT 310749Z 3109/3118 05009KT 9999 FEW018 SCT040 PROB30 TEMPO 3109/3110 -SHRA BKN022

Orai ataskaitas ir orų prognozės (METAR, TAF).

turimą stotys yra geltonos ir raudonos taškus žemėlapyje.

Perkelti pele per norėdami pamatyti stoties vardą.

Tada spustelėkite, norėdami matyti oro stebėjimo ir prognozės.

Norėdami pakeisti žemėlapį: spustelėkite ant žalios mygtukų su juodo kryžiaus žemyn,; žalią mygtuką su brūkšneliu, jei norite nutolinti; arba žalių rodyklių gretimoms žemėlapius.


METAR-TAF: